Time;durP1;ratioP1;P1;durP2;ratioP2;P2;SDS_P1;SDS_P2;PMS_P1;PMS_P2;Temp;Humidity;BMP_temperature;BMP_pressure;BME280_temperature;BME280_humidity;BME280_pressure;Samples;Min_cycle;Max_cycle;Signal;HPM_P1;HPM_P2
2023/10/19 00:00:45;;;;;;;6.33;1.53;;;;;;;;;;4994946;28;20185;-72
2023/10/19 00:03:13;;;;;;;5.60;1.37;;;;;;;;;;5010748;28;20309;-71
2023/10/19 00:05:45;;;;;;;12.67;1.47;;;;;;;;;;5013876;28;20320;-71
2023/10/19 00:08:20;;;;;;;4.57;1.10;;;;;;;;;;5014144;28;20170;-70
2023/10/19 00:13:41;;;;;;;7.00;1.40;;;;;;;;;;5014078;28;20212;-70
2023/10/19 00:16:16;;;;;;;3.57;1.20;;;;;;;;;;4994723;28;20185;-70
2023/10/19 00:18:44;;;;;;;5.67;1.00;;;;;;;;;;4994387;28;20635;-72
2023/10/19 00:23:39;;;;;;;9.70;1.97;;;;;;;;;;4999328;28;20190;-71
2023/10/19 00:26:15;;;;;;;3.33;1.00;;;;;;;;;;5014061;28;20293;-71
2023/10/19 00:28:45;;;;;;;5.33;1.23;;;;;;;;;;5013666;28;20181;-71
2023/10/19 00:31:13;;;;;;;3.77;1.07;;;;;;;;;;5013958;28;20178;-70
2023/10/19 00:33:41;;;;;;;3.77;1.20;;;;;;;;;;5013163;28;20593;-71
2023/10/19 00:36:12;;;;;;;6.50;1.50;;;;;;;;;;5013079;28;20621;-71
2023/10/19 00:41:24;;;;;;;7.83;1.37;;;;;;;;;;5013687;28;20189;-71
2023/10/19 00:43:58;;;;;;;9.00;2.03;;;;;;;;;;5011967;28;20631;-71
2023/10/19 00:46:43;;;;;;;4.77;1.20;;;;;;;;;;5013436;28;20647;-71
2023/10/19 00:49:14;;;;;;;5.80;1.73;;;;;;;;;;5013561;28;20669;-71
2023/10/19 00:54:26;;;;;;;8.30;1.40;;;;;;;;;;5012890;28;20213;-72
2023/10/19 00:56:58;;;;;;;4.77;1.30;;;;;;;;;;5013408;28;20186;-72
2023/10/19 00:59:30;;;;;;;5.03;1.17;;;;;;;;;;5013289;28;20192;-71
2023/10/19 01:02:05;;;;;;;4.27;1.50;;;;;;;;;;5013106;28;20184;-70
2023/10/19 01:04:34;;;;;;;9.77;1.60;;;;;;;;;;5012595;28;20196;-70
2023/10/19 01:07:23;;;;;;;3.60;1.27;;;;;;;;;;5012810;28;20550;-70
2023/10/19 01:09:52;;;;;;;3.53;1.60;;;;;;;;;;5012696;28;20196;-71
2023/10/19 01:12:33;;;;;;;4.83;1.60;;;;;;;;;;5012788;28;20190;-71
2023/10/19 01:15:13;;;;;;;6.00;1.27;;;;;;;;;;5012747;28;20228;-71
2023/10/19 01:17:43;;;;;;;5.80;2.00;;;;;;;;;;5012831;28;20189;-70
2023/10/19 01:20:21;;;;;;;12.23;6.37;;;;;;;;;;5011718;28;20180;-70
2023/10/19 01:23:35;;;;;;;13.30;6.77;;;;;;;;;;5012718;28;20181;-71
2023/10/19 01:25:49;;;;;;;13.47;6.67;;;;;;;;;;5001146;28;20197;-69
2023/10/19 01:28:17;;;;;;;9.97;5.37;;;;;;;;;;5012908;28;20177;-70
2023/10/19 01:30:45;;;;;;;9.83;4.77;;;;;;;;;;5012341;28;20192;-70
2023/10/19 01:33:13;;;;;;;11.47;5.93;;;;;;;;;;5012629;28;20216;-71
2023/10/19 01:38:30;;;;;;;10.67;4.10;;;;;;;;;;5013007;28;20209;-71
2023/10/19 01:41:01;;;;;;;5.37;3.10;;;;;;;;;;5012528;28;20243;-72
2023/10/19 01:43:32;;;;;;;6.10;3.13;;;;;;;;;;5012362;28;20200;-71
2023/10/19 01:46:11;;;;;;;6.77;2.83;;;;;;;;;;5011900;28;20559;-70
2023/10/19 01:51:44;;;;;;;8.43;3.23;;;;;;;;;;5011772;28;20195;-72
2023/10/19 01:54:11;;;;;;;7.13;1.47;;;;;;;;;;5012280;28;20283;-70
2023/10/19 01:56:43;;;;;;;4.97;1.53;;;;;;;;;;5012164;28;20218;-71
2023/10/19 01:59:11;;;;;;;4.57;1.60;;;;;;;;;;5012493;28;20184;-70
2023/10/19 02:01:41;;;;;;;5.57;1.30;;;;;;;;;;5012346;28;20189;-71
2023/10/19 02:04:09;;;;;;;3.77;1.00;;;;;;;;;;5012232;28;20190;-70
2023/10/19 02:06:40;;;;;;;6.00;1.53;;;;;;;;;;5011849;28;20231;-71
2023/10/19 02:09:32;;;;;;;7.57;1.40;;;;;;;;;;5012171;28;20227;-71
2023/10/19 02:12:01;;;;;;;5.13;1.13;;;;;;;;;;5012342;28;20180;-72
2023/10/19 02:14:28;;;;;;;4.17;1.13;;;;;;;;;;5012116;28;20228;-70
2023/10/19 02:16:58;;;;;;;6.10;0.83;;;;;;;;;;5011565;28;20178;-71
2023/10/19 02:19:26;;;;;;;3.80;1.00;;;;;;;;;;5012080;28;20194;-71
2023/10/19 02:21:55;;;;;;;4.83;1.10;;;;;;;;;;5012256;28;20203;-72
2023/10/19 02:24:23;;;;;;;7.13;1.23;;;;;;;;;;5012075;28;20182;-70
2023/10/19 02:26:54;;;;;;;4.67;0.90;;;;;;;;;;5011575;28;20185;-70
2023/10/19 02:29:28;;;;;;;5.03;1.10;;;;;;;;;;5011936;28;20192;-70
2023/10/19 02:31:56;;;;;;;4.30;1.10;;;;;;;;;;5012028;28;20255;-71
2023/10/19 02:34:24;;;;;;;6.87;0.93;;;;;;;;;;5012179;28;20262;-72
2023/10/19 02:36:51;;;;;;;6.50;1.30;;;;;;;;;;5011403;28;20347;-71
2023/10/19 02:39:18;;;;;;;7.90;1.30;;;;;;;;;;5012008;28;20198;-71
2023/10/19 02:41:50;;;;;;;8.07;1.10;;;;;;;;;;5012041;28;20189;-71
2023/10/19 02:46:50;;;;;;;8.40;1.17;;;;;;;;;;5011752;28;20192;-68
2023/10/19 02:49:20;;;;;;;6.00;1.30;;;;;;;;;;5011736;28;20239;-71
2023/10/19 02:51:49;;;;;;;5.57;1.50;;;;;;;;;;5011930;28;20185;-70
2023/10/19 02:54:20;;;;;;;7.03;1.07;;;;;;;;;;5012596;28;20679;-68
2023/10/19 02:56:49;;;;;;;2.23;0.80;;;;;;;;;;4986921;28;20233;-70
2023/10/19 02:59:23;;;;;;;4.80;1.17;;;;;;;;;;5010835;28;20261;-70
2023/10/19 03:01:52;;;;;;;4.67;1.00;;;;;;;;;;5013706;28;20204;-69
2023/10/19 03:04:20;;;;;;;4.53;1.00;;;;;;;;;;5015024;28;20243;-69
2023/10/19 03:06:47;;;;;;;2.37;1.07;;;;;;;;;;5013773;28;20247;-69
2023/10/19 03:11:59;;;;;;;4.83;1.20;;;;;;;;;;5015003;28;20181;-68
2023/10/19 03:14:29;;;;;;;3.77;1.00;;;;;;;;;;5031299;28;20223;-70
2023/10/19 03:16:57;;;;;;;2.27;0.83;;;;;;;;;;5031164;28;20236;-69
2023/10/19 03:19:27;;;;;;;4.13;0.87;;;;;;;;;;5015285;28;20186;-68
2023/10/19 03:21:55;;;;;;;2.83;0.90;;;;;;;;;;5014588;28;20177;-69
2023/10/19 03:24:42;;;;;;;3.37;1.40;;;;;;;;;;5014929;28;20177;-69
2023/10/19 03:27:18;;;;;;;4.23;1.00;;;;;;;;;;5015847;28;20178;-68
2023/10/19 03:29:47;;;;;;;3.63;0.90;;;;;;;;;;5024828;28;20181;-68
2023/10/19 03:32:16;;;;;;;7.63;1.07;;;;;;;;;;5035329;28;20307;-68
2023/10/19 03:34:47;;;;;;;1.97;0.90;;;;;;;;;;5035465;28;20221;-68
2023/10/19 03:37:15;;;;;;;4.57;0.93;;;;;;;;;;5035422;28;20233;-69
2023/10/19 03:39:46;;;;;;;6.43;0.90;;;;;;;;;;5018844;28;20642;-68
2023/10/19 03:42:32;;;;;;;8.87;1.03;;;;;;;;;;5011781;28;20259;-68
2023/10/19 03:45:07;;;;;;;4.00;1.00;;;;;;;;;;5013708;28;20189;-68
2023/10/19 03:47:35;;;;;;;6.97;1.37;;;;;;;;;;5012597;28;20682;-69
2023/10/19 03:50:23;;;;;;;4.60;1.03;;;;;;;;;;5013487;28;20181;-68
2023/10/19 03:52:51;;;;;;;3.13;0.80;;;;;;;;;;5012796;28;20189;-69
2023/10/19 03:55:19;;;;;;;3.00;1.07;;;;;;;;;;5013359;28;20285;-69
2023/10/19 03:57:50;;;;;;;2.70;1.10;;;;;;;;;;5013324;28;20716;-69
2023/10/19 04:00:24;;;;;;;2.63;1.00;;;;;;;;;;5013736;28;20276;-69
2023/10/19 04:02:53;;;;;;;3.40;1.00;;;;;;;;;;5012720;28;20178;-70
2023/10/19 04:05:22;;;;;;;4.13;0.70;;;;;;;;;;5007583;28;20178;-70
2023/10/19 04:07:52;;;;;;;3.20;1.00;;;;;;;;;;5008338;28;20221;-69
2023/10/19 04:13:02;;;;;;;1.90;0.77;;;;;;;;;;5011497;28;20182;-70
2023/10/19 04:15:33;;;;;;;2.67;0.93;;;;;;;;;;5012206;28;20248;-68
2023/10/19 04:18:01;;;;;;;2.37;0.90;;;;;;;;;;5013043;28;20202;-70
2023/10/19 04:20:29;;;;;;;3.93;1.23;;;;;;;;;;5015076;28;20192;-69
2023/10/19 04:22:58;;;;;;;4.20;1.20;;;;;;;;;;5014529;28;20185;-68
2023/10/19 04:25:26;;;;;;;2.33;1.07;;;;;;;;;;5015451;28;20174;-69
2023/10/19 04:27:53;;;;;;;3.67;1.00;;;;;;;;;;5015138;28;20178;-68
2023/10/19 04:30:27;;;;;;;4.87;1.00;;;;;;;;;;5015002;28;20193;-68
2023/10/19 04:32:57;;;;;;;3.83;1.23;;;;;;;;;;5013965;28;20286;-68
2023/10/19 04:35:29;;;;;;;4.07;0.90;;;;;;;;;;5013631;28;20600;-69
2023/10/19 04:37:57;;;;;;;4.03;1.00;;;;;;;;;;5013497;28;20725;-68
2023/10/19 04:40:28;;;;;;;8.40;1.87;;;;;;;;;;5014462;28;20705;-68
2023/10/19 04:42:56;;;;;;;4.73;1.20;;;;;;;;;;5014420;28;20643;-70
2023/10/19 04:45:23;;;;;;;2.77;0.90;;;;;;;;;;5014413;28;20201;-68
2023/10/19 04:47:54;;;;;;;2.40;1.10;;;;;;;;;;4993325;28;20324;-68
2023/10/19 04:50:22;;;;;;;2.10;0.97;;;;;;;;;;5012669;28;20280;-67
2023/10/19 04:52:49;;;;;;;3.77;1.27;;;;;;;;;;5012667;28;20181;-69
2023/10/19 04:55:17;;;;;;;5.17;0.97;;;;;;;;;;5012048;28;20689;-71
2023/10/19 04:57:44;;;;;;;2.90;1.00;;;;;;;;;;5012614;28;20228;-68
2023/10/19 05:00:13;;;;;;;4.20;1.20;;;;;;;;;;5013153;28;20792;-69
2023/10/19 05:02:40;;;;;;;2.70;0.90;;;;;;;;;;5012678;28;20176;-69
2023/10/19 05:05:08;;;;;;;3.50;1.47;;;;;;;;;;5013373;28;20170;-69
2023/10/19 05:07:35;;;;;;;3.83;1.10;;;;;;;;;;5012563;28;20276;-67
2023/10/19 05:10:05;;;;;;;4.00;1.00;;;;;;;;;;5012158;28;20190;-67
2023/10/19 05:12:32;;;;;;;6.33;1.00;;;;;;;;;;5013067;28;20185;-68
2023/10/19 05:15:00;;;;;;;3.37;1.63;;;;;;;;;;5013136;28;20216;-69
2023/10/19 05:17:27;;;;;;;3.90;1.13;;;;;;;;;;5012171;28;20177;-70
2023/10/19 05:19:55;;;;;;;6.20;1.23;;;;;;;;;;5013077;28;20241;-69
2023/10/19 05:22:24;;;;;;;2.37;0.80;;;;;;;;;;5012936;28;20181;-69
2023/10/19 05:24:52;;;;;;;5.60;1.20;;;;;;;;;;5012061;28;20613;-68
2023/10/19 05:27:19;;;;;;;4.40;1.17;;;;;;;;;;5012268;28;20225;-69
2023/10/19 05:29:47;;;;;;;5.63;1.40;;;;;;;;;;5012818;28;20177;-70
2023/10/19 05:32:14;;;;;;;3.03;1.10;;;;;;;;;;5011172;28;20248;-69
2023/10/19 05:34:41;;;;;;;4.87;1.23;;;;;;;;;;5011307;28;20577;-68
2023/10/19 05:37:10;;;;;;;3.80;1.30;;;;;;;;;;5010801;28;20230;-68
2023/10/19 05:39:38;;;;;;;6.80;1.30;;;;;;;;;;5011937;28;20652;-68
2023/10/19 05:42:05;;;;;;;8.33;1.63;;;;;;;;;;5012724;28;20174;-68
2023/10/19 05:44:33;;;;;;;2.50;1.20;;;;;;;;;;5012475;28;20239;-67
2023/10/19 05:47:02;;;;;;;3.20;1.40;;;;;;;;;;5012118;28;20547;-67
2023/10/19 05:49:29;;;;;;;2.90;1.10;;;;;;;;;;5012087;28;20655;-68
2023/10/19 05:51:56;;;;;;;5.47;1.00;;;;;;;;;;5012042;28;20664;-69
2023/10/19 05:54:24;;;;;;;3.67;1.30;;;;;;;;;;5011865;28;20221;-68
2023/10/19 05:56:52;;;;;;;3.03;1.50;;;;;;;;;;5026012;28;20186;-68
2023/10/19 05:59:19;;;;;;;3.53;1.17;;;;;;;;;;5032019;28;20637;-68
2023/10/19 06:01:47;;;;;;;3.90;1.40;;;;;;;;;;5015057;28;20185;-69
2023/10/19 06:04:15;;;;;;;4.07;1.60;;;;;;;;;;5012080;28;20557;-69
2023/10/19 06:06:42;;;;;;;3.27;1.27;;;;;;;;;;5012218;28;20186;-68
2023/10/19 06:09:09;;;;;;;3.03;1.30;;;;;;;;;;5013148;28;20197;-68
2023/10/19 06:11:42;;;;;;;6.50;1.40;;;;;;;;;;5012857;28;20194;-68
2023/10/19 06:14:10;;;;;;;2.33;1.10;;;;;;;;;;5013175;28;20294;-68
2023/10/19 06:16:37;;;;;;;3.23;1.47;;;;;;;;;;5013688;28;20639;-68
2023/10/19 06:19:05;;;;;;;3.67;1.27;;;;;;;;;;4990091;28;20189;-69
2023/10/19 06:21:33;;;;;;;6.00;1.77;;;;;;;;;;5011576;28;20605;-69
2023/10/19 06:24:00;;;;;;;3.47;1.60;;;;;;;;;;5011485;28;20197;-68
2023/10/19 06:26:28;;;;;;;5.37;1.50;;;;;;;;;;5011172;28;20703;-68
2023/10/19 06:28:59;;;;;;;4.20;1.50;;;;;;;;;;5010092;28;20196;-68
2023/10/19 06:31:28;;;;;;;7.03;1.87;;;;;;;;;;5011324;28;20181;-69
2023/10/19 06:33:57;;;;;;;4.53;1.40;;;;;;;;;;5011427;28;20225;-68
2023/10/19 06:36:24;;;;;;;6.03;1.43;;;;;;;;;;5013507;28;20236;-68
2023/10/19 06:38:51;;;;;;;3.63;1.53;;;;;;;;;;5016095;28;20173;-67
2023/10/19 06:41:19;;;;;;;6.67;1.70;;;;;;;;;;5015157;28;20225;-68
2023/10/19 06:43:46;;;;;;;5.13;1.60;;;;;;;;;;5014824;28;20185;-68
2023/10/19 06:46:14;;;;;;;2.97;1.37;;;;;;;;;;5015574;28;20178;-68
2023/10/19 06:48:42;;;;;;;6.93;1.73;;;;;;;;;;5015139;28;20186;-68
2023/10/19 06:51:09;;;;;;;5.30;1.70;;;;;;;;;;5015520;28;20185;-68
2023/10/19 06:53:37;;;;;;;6.73;1.50;;;;;;;;;;5015020;28;20205;-68
2023/10/19 06:56:04;;;;;;;8.03;1.50;;;;;;;;;;5014572;28;20184;-68
2023/10/19 06:58:31;;;;;;;7.33;1.30;;;;;;;;;;5015445;28;20178;-68
2023/10/19 07:01:08;;;;;;;5.10;1.60;;;;;;;;;;5015301;28;20646;-67
2023/10/19 07:03:35;;;;;;;5.40;1.27;;;;;;;;;;5014663;28;20182;-68
2023/10/19 07:06:03;;;;;;;7.93;1.97;;;;;;;;;;5015550;28;20170;-68
2023/10/19 07:08:30;;;;;;;3.67;1.27;;;;;;;;;;5015389;28;20542;-68
2023/10/19 07:10:57;;;;;;;5.47;1.20;;;;;;;;;;5014406;28;20189;-69
2023/10/19 07:13:24;;;;;;;6.30;1.30;;;;;;;;;;5015042;28;20694;-68
2023/10/19 07:15:52;;;;;;;5.33;1.40;;;;;;;;;;5015280;28;20178;-69
2023/10/19 07:30:35;;;;;;;8.17;1.50;;;;;;;;;;5013670;28;20203;-68
2023/10/19 07:33:04;;;;;;;6.73;1.50;;;;;;;;;;5014201;28;20215;-67
2023/10/19 07:35:37;;;;;;;8.93;2.23;;;;;;;;;;5014717;28;20537;-68
2023/10/19 07:38:07;;;;;;;6.17;1.10;;;;;;;;;;5011668;28;20282;-69
2023/10/19 07:40:37;;;;;;;3.90;1.57;;;;;;;;;;5013195;28;20186;-68
2023/10/19 07:43:04;;;;;;;4.37;1.40;;;;;;;;;;5014516;28;20306;-69
2023/10/19 07:45:34;;;;;;;6.27;1.20;;;;;;;;;;5011518;28;20193;-67
2023/10/19 07:48:06;;;;;;;3.47;1.33;;;;;;;;;;5013414;28;20181;-68
2023/10/19 07:50:34;;;;;;;4.13;1.40;;;;;;;;;;5014188;28;20180;-69
2023/10/19 07:53:01;;;;;;;5.53;1.40;;;;;;;;;;5014500;28;20178;-70
2023/10/19 07:55:28;;;;;;;3.90;1.33;;;;;;;;;;5012921;28;20742;-70
2023/10/19 07:57:57;;;;;;;5.97;1.47;;;;;;;;;;5014344;28;20279;-70
2023/10/19 08:00:24;;;;;;;11.27;1.60;;;;;;;;;;5013971;28;20209;-69
2023/10/19 08:02:53;;;;;;;3.77;1.13;;;;;;;;;;5014024;28;20260;-70
2023/10/19 08:05:21;;;;;;;8.53;1.67;;;;;;;;;;5014249;28;20258;-70
2023/10/19 08:07:48;;;;;;;9.33;1.93;;;;;;;;;;5014491;28;20733;-68
2023/10/19 08:10:17;;;;;;;4.53;1.40;;;;;;;;;;5013409;28;20277;-70
2023/10/19 08:12:47;;;;;;;4.33;1.50;;;;;;;;;;5014177;28;20194;-69
2023/10/19 08:15:19;;;;;;;7.03;1.30;;;;;;;;;;5014169;28;20215;-68
2023/10/19 08:17:48;;;;;;;6.27;1.63;;;;;;;;;;5013731;28;20188;-68
2023/10/19 08:20:30;;;;;;;3.50;1.40;;;;;;;;;;5013557;28;20616;-72
2023/10/19 08:22:58;;;;;;;5.40;1.90;;;;;;;;;;5014255;28;20182;-70
2023/10/19 08:25:29;;;;;;;2.80;1.67;;;;;;;;;;5013691;28;20233;-71
2023/10/19 08:27:59;;;;;;;6.13;1.60;;;;;;;;;;5012973;28;20239;-71
2023/10/19 08:30:28;;;;;;;5.47;1.80;;;;;;;;;;5013273;28;20647;-72
2023/10/19 08:36:02;;;;;;;3.37;1.50;;;;;;;;;;5014057;28;20626;-70
2023/10/19 08:38:29;;;;;;;4.60;1.77;;;;;;;;;;5015038;28;20647;-71
2023/10/19 08:40:57;;;;;;;6.57;1.40;;;;;;;;;;5014705;28;20551;-69
2023/10/19 08:43:28;;;;;;;8.53;1.70;;;;;;;;;;5020709;28;20185;-71
2023/10/19 08:45:55;;;;;;;4.13;1.23;;;;;;;;;;5034404;28;20201;-71
2023/10/19 08:48:23;;;;;;;9.60;2.30;;;;;;;;;;5017686;28;20217;-72
2023/10/19 08:50:51;;;;;;;10.93;1.63;;;;;;;;;;5014486;28;20190;-70
2023/10/19 08:53:19;;;;;;;4.47;1.47;;;;;;;;;;5013923;28;20248;-69
2023/10/19 08:55:48;;;;;;;7.03;1.50;;;;;;;;;;5013830;28;20301;-72
2023/10/19 08:58:19;;;;;;;12.07;2.67;;;;;;;;;;4994554;28;20176;-72
2023/10/19 09:01:06;;;;;;;7.53;1.33;;;;;;;;;;5010149;28;20272;-71
2023/10/19 09:03:34;;;;;;;6.37;1.40;;;;;;;;;;5034113;28;20196;-73
2023/10/19 09:06:02;;;;;;;7.67;1.80;;;;;;;;;;5034352;28;20177;-70
2023/10/19 09:08:39;;;;;;;4.40;1.40;;;;;;;;;;5034435;28;20635;-70
2023/10/19 09:11:11;;;;;;;4.03;1.40;;;;;;;;;;5034100;28;20195;-71
2023/10/19 09:13:52;;;;;;;6.37;2.00;;;;;;;;;;5033872;28;20693;-71
2023/10/19 09:16:20;;;;;;;6.00;1.30;;;;;;;;;;5033694;28;20180;-70
2023/10/19 09:18:48;;;;;;;5.20;1.27;;;;;;;;;;5034176;28;20646;-70
2023/10/19 09:21:27;;;;;;;7.67;1.97;;;;;;;;;;5017214;28;20558;-72
2023/10/19 09:23:55;;;;;;;6.13;1.70;;;;;;;;;;5009806;28;20190;-71
2023/10/19 09:26:24;;;;;;;7.93;1.80;;;;;;;;;;4994563;28;20176;-71
2023/10/19 09:28:52;;;;;;;4.73;1.30;;;;;;;;;;4994609;28;20175;-71
2023/10/19 09:31:24;;;;;;;7.20;1.30;;;;;;;;;;5003094;28;20194;-70
2023/10/19 09:33:54;;;;;;;5.33;1.67;;;;;;;;;;5000998;28;20246;-69
2023/10/19 09:36:23;;;;;;;4.83;1.60;;;;;;;;;;5000081;28;20598;-71
2023/10/19 09:38:51;;;;;;;6.10;1.57;;;;;;;;;;5013996;28;20182;-70
2023/10/19 09:41:19;;;;;;;5.57;1.60;;;;;;;;;;5012389;28;20186;-69
2023/10/19 09:43:51;;;;;;;8.40;2.03;;;;;;;;;;5012567;28;20626;-72
2023/10/19 09:46:22;;;;;;;7.63;1.37;;;;;;;;;;5013235;28;20189;-69
2023/10/19 09:48:51;;;;;;;6.83;1.50;;;;;;;;;;5014184;28;20537;-71
2023/10/19 09:51:19;;;;;;;5.23;2.03;;;;;;;;;;5014178;28;20178;-68
2023/10/19 09:53:52;;;;;;;9.07;1.60;;;;;;;;;;5013856;28;20217;-73
2023/10/19 09:56:27;;;;;;;7.10;1.63;;;;;;;;;;5013584;28;20190;-69
2023/10/19 09:58:58;;;;;;;3.10;1.73;;;;;;;;;;5013758;28;20245;-70
2023/10/19 10:01:26;;;;;;;9.87;2.17;;;;;;;;;;5014282;28;20181;-72
2023/10/19 10:03:54;;;;;;;11.57;1.90;;;;;;;;;;5013301;28;20206;-70
2023/10/19 10:06:39;;;;;;;6.57;1.80;;;;;;;;;;5011860;28;20273;-72
2023/10/19 10:09:11;;;;;;;9.57;2.57;;;;;;;;;;5013646;28;20531;-70
2023/10/19 10:11:39;;;;;;;7.17;1.37;;;;;;;;;;5012634;28;20200;-71
2023/10/19 10:14:21;;;;;;;6.83;1.73;;;;;;;;;;5013100;28;20213;-71
2023/10/19 10:17:27;;;;;;;5.10;1.20;;;;;;;;;;5012982;28;20252;-70
2023/10/19 10:20:15;;;;;;;9.37;2.00;;;;;;;;;;4972055;28;20269;-69
2023/10/19 10:22:42;;;;;;;7.27;2.33;;;;;;;;;;4972156;28;20186;-69
2023/10/19 10:25:29;;;;;;;10.40;2.03;;;;;;;;;;4998473;28;20287;-70
2023/10/19 10:27:57;;;;;;;6.40;1.50;;;;;;;;;;5012917;28;20272;-69
2023/10/19 10:30:24;;;;;;;10.90;2.07;;;;;;;;;;5013224;28;20182;-70
2023/10/19 10:32:54;;;;;;;9.27;1.67;;;;;;;;;;5013199;28;20209;-69
2023/10/19 10:35:39;;;;;;;6.23;1.50;;;;;;;;;;4993281;28;20314;-71
2023/10/19 10:38:08;;;;;;;17.93;2.67;;;;;;;;;;5011773;28;20233;-69
2023/10/19 10:40:45;;;;;;;11.03;2.53;;;;;;;;;;5013166;28;20643;-70
2023/10/19 10:43:13;;;;;;;10.90;1.73;;;;;;;;;;5013220;28;20182;-71
2023/10/19 10:45:40;;;;;;;9.10;1.70;;;;;;;;;;5013272;28;20185;-70
2023/10/19 10:48:14;;;;;;;7.40;1.63;;;;;;;;;;5012679;28;20644;-69
2023/10/19 10:50:42;;;;;;;5.93;1.87;;;;;;;;;;5013238;28;20178;-69
2023/10/19 10:53:17;;;;;;;8.80;1.67;;;;;;;;;;5012848;28;20221;-69
2023/10/19 10:55:45;;;;;;;7.73;1.77;;;;;;;;;;5013167;28;20186;-70
2023/10/19 10:58:19;;;;;;;13.70;2.40;;;;;;;;;;5012669;28;20728;-69
2023/10/19 11:03:50;;;;;;;6.80;1.90;;;;;;;;;;5012273;28;20192;-70
2023/10/19 11:06:17;;;;;;;6.70;2.00;;;;;;;;;;5013055;28;20174;-70
2023/10/19 11:08:45;;;;;;;7.40;2.57;;;;;;;;;;5012772;28;20647;-71
2023/10/19 11:11:12;;;;;;;8.97;1.97;;;;;;;;;;5012967;28;20166;-70
2023/10/19 11:16:43;;;;;;;9.80;2.10;;;;;;;;;;5011840;28;20561;-70
2023/10/19 11:22:14;;;;;;;10.50;2.57;;;;;;;;;;5013016;28;20188;-72
2023/10/19 11:24:41;;;;;;;9.97;2.07;;;;;;;;;;5015877;28;20186;-69
2023/10/19 11:27:11;;;;;;;10.47;2.00;;;;;;;;;;5015205;28;20202;-70
2023/10/19 11:29:39;;;;;;;7.57;2.23;;;;;;;;;;5013850;28;20261;-71
2023/10/19 11:32:06;;;;;;;3.73;1.97;;;;;;;;;;5015445;28;20186;-70
2023/10/19 11:34:34;;;;;;;6.93;1.90;;;;;;;;;;5016051;28;20296;-71
2023/10/19 11:37:03;;;;;;;8.93;2.33;;;;;;;;;;5015629;28;20222;-71
2023/10/19 11:39:31;;;;;;;9.57;1.93;;;;;;;;;;5015321;28;20192;-70
2023/10/19 11:41:58;;;;;;;7.03;1.80;;;;;;;;;;5014988;28;20205;-71
2023/10/19 11:44:25;;;;;;;5.30;1.87;;;;;;;;;;5016049;28;20181;-69
2023/10/19 11:46:53;;;;;;;7.83;2.17;;;;;;;;;;5015420;28;20178;-68
2023/10/19 11:49:20;;;;;;;5.63;1.83;;;;;;;;;;5014957;28;20553;-68
2023/10/19 11:51:47;;;;;;;4.87;2.00;;;;;;;;;;5014430;28;20184;-70
2023/10/19 11:54:16;;;;;;;8.47;1.73;;;;;;;;;;5014734;28;20213;-70
2023/10/19 11:56:43;;;;;;;6.27;1.80;;;;;;;;;;5014857;28;20268;-71
2023/10/19 11:59:12;;;;;;;5.57;1.77;;;;;;;;;;5015382;28;20186;-68
2023/10/19 12:01:39;;;;;;;9.97;2.03;;;;;;;;;;5015389;28;20194;-69
2023/10/19 12:04:07;;;;;;;7.53;1.83;;;;;;;;;;5015126;28;20197;-70
2023/10/19 12:06:34;;;;;;;7.77;2.27;;;;;;;;;;5014798;28;20322;-67
2023/10/19 12:09:13;;;;;;;5.80;2.00;;;;;;;;;;5014825;28;20288;-70
2023/10/19 12:11:41;;;;;;;8.53;1.90;;;;;;;;;;5010348;28;20182;-71
2023/10/19 12:14:11;;;;;;;9.37;1.97;;;;;;;;;;5004391;28;20202;-71
2023/10/19 12:16:39;;;;;;;7.77;2.10;;;;;;;;;;5014943;28;20190;-69
2023/10/19 12:19:09;;;;;;;7.87;1.70;;;;;;;;;;5014789;28;20181;-68
2023/10/19 12:21:41;;;;;;;4.03;1.60;;;;;;;;;;5014955;28;20186;-70
2023/10/19 12:24:09;;;;;;;9.70;1.93;;;;;;;;;;5014757;28;20185;-70
2023/10/19 12:26:36;;;;;;;6.60;2.00;;;;;;;;;;5014852;28;20178;-71
2023/10/19 12:29:09;;;;;;;9.97;1.90;;;;;;;;;;5014820;28;20189;-71
2023/10/19 12:31:39;;;;;;;7.07;2.20;;;;;;;;;;5014786;28;20194;-70
2023/10/19 12:34:07;;;;;;;5.43;1.73;;;;;;;;;;5012096;28;20212;-69
2023/10/19 12:36:35;;;;;;;7.77;2.03;;;;;;;;;;5014171;28;20225;-70
2023/10/19 12:39:06;;;;;;;8.37;1.83;;;;;;;;;;5000900;28;20230;-69
2023/10/19 12:41:34;;;;;;;7.53;2.07;;;;;;;;;;5014621;28;20182;-71
2023/10/19 12:44:07;;;;;;;10.03;1.83;;;;;;;;;;5013931;28;20181;-70
2023/10/19 12:46:36;;;;;;;7.10;1.90;;;;;;;;;;5014215;28;20185;-70
2023/10/19 12:49:14;;;;;;;7.13;1.97;;;;;;;;;;5014004;28;20533;-71
2023/10/19 12:51:42;;;;;;;10.63;2.17;;;;;;;;;;5014588;28;20193;-70
2023/10/19 12:54:10;;;;;;;8.97;2.30;;;;;;;;;;5014765;28;20305;-72
2023/10/19 12:56:39;;;;;;;14.97;2.40;;;;;;;;;;5013924;28;20237;-71
2023/10/19 12:59:06;;;;;;;7.23;1.80;;;;;;;;;;5013766;28;20196;-71
2023/10/19 13:01:36;;;;;;;13.27;2.33;;;;;;;;;;5013812;28;20247;-71
2023/10/19 13:04:13;;;;;;;10.33;2.20;;;;;;;;;;5014097;28;20198;-71
2023/10/19 13:06:41;;;;;;;7.10;1.83;;;;;;;;;;5014243;28;20263;-70
2023/10/19 13:09:09;;;;;;;5.77;1.80;;;;;;;;;;5014504;28;20174;-69
2023/10/19 13:11:38;;;;;;;5.83;1.90;;;;;;;;;;5014427;28;20181;-68
2023/10/19 13:14:06;;;;;;;5.73;2.23;;;;;;;;;;5014087;28;20578;-72
2023/10/19 13:16:33;;;;;;;10.70;2.27;;;;;;;;;;5013942;28;20229;-70
2023/10/19 13:19:11;;;;;;;8.20;2.13;;;;;;;;;;5014056;28;20220;-68
2023/10/19 13:21:39;;;;;;;7.30;1.90;;;;;;;;;;5014232;28;20273;-68
2023/10/19 13:24:06;;;;;;;5.63;2.07;;;;;;;;;;5014578;28;20685;-67
2023/10/19 13:26:34;;;;;;;8.77;3.00;;;;;;;;;;5013652;28;20178;-68
2023/10/19 13:29:02;;;;;;;5.97;1.87;;;;;;;;;;5013887;28;20188;-70
2023/10/19 13:31:29;;;;;;;8.30;2.60;;;;;;;;;;5014686;28;20177;-67
2023/10/19 13:33:56;;;;;;;10.30;2.60;;;;;;;;;;5014259;28;20561;-72
2023/10/19 13:36:24;;;;;;;8.30;2.47;;;;;;;;;;5014079;28;20218;-69
2023/10/19 13:38:51;;;;;;;6.50;2.60;;;;;;;;;;5014356;28;20180;-70
2023/10/19 13:41:18;;;;;;;7.10;2.37;;;;;;;;;;5014221;28;20180;-69
2023/10/19 13:43:47;;;;;;;8.97;2.10;;;;;;;;;;5013592;28;20201;-72
2023/10/19 13:46:14;;;;;;;7.93;2.47;;;;;;;;;;5013582;28;20182;-70
2023/10/19 13:48:42;;;;;;;9.50;2.20;;;;;;;;;;5014333;28;20623;-67
2023/10/19 13:51:15;;;;;;;10.17;2.70;;;;;;;;;;5014223;28;20178;-71
2023/10/19 13:53:44;;;;;;;5.57;2.20;;;;;;;;;;5013751;28;20297;-69
2023/10/19 13:56:12;;;;;;;10.30;2.07;;;;;;;;;;5013299;28;20190;-71
2023/10/19 13:58:40;;;;;;;5.47;2.50;;;;;;;;;;5013905;28;20179;-69
2023/10/19 14:01:11;;;;;;;7.07;2.47;;;;;;;;;;5013472;28;20240;-69
2023/10/19 14:03:38;;;;;;;8.50;2.70;;;;;;;;;;5013486;28;20271;-68
2023/10/19 14:06:06;;;;;;;6.70;2.07;;;;;;;;;;5013127;28;20190;-70
2023/10/19 14:08:33;;;;;;;5.63;1.87;;;;;;;;;;5012479;28;20206;-71
2023/10/19 14:11:04;;;;;;;11.80;2.40;;;;;;;;;;5013167;28;20199;-69
2023/10/19 14:13:31;;;;;;;7.13;2.37;;;;;;;;;;5013309;28;20212;-71
2023/10/19 14:15:59;;;;;;;8.93;2.53;;;;;;;;;;5013537;28;20199;-69
2023/10/19 14:18:26;;;;;;;4.83;2.10;;;;;;;;;;5013567;28;20170;-70
2023/10/19 14:20:54;;;;;;;14.37;2.43;;;;;;;;;;5013456;28;20187;-72
2023/10/19 14:23:21;;;;;;;9.43;2.63;;;;;;;;;;5013074;28;20174;-68
2023/10/19 14:25:49;;;;;;;5.73;2.00;;;;;;;;;;5013404;28;20208;-69
2023/10/19 14:28:17;;;;;;;8.17;2.57;;;;;;;;;;5013487;28;20198;-70
2023/10/19 14:30:45;;;;;;;6.87;2.17;;;;;;;;;;5013265;28;20588;-71
2023/10/19 14:33:12;;;;;;;5.87;2.60;;;;;;;;;;5012872;28;20577;-69
2023/10/19 14:35:41;;;;;;;8.73;2.63;;;;;;;;;;5013474;28;20189;-70
2023/10/19 14:38:11;;;;;;;8.40;2.30;;;;;;;;;;5012925;28;20240;-69
2023/10/19 14:40:38;;;;;;;6.73;2.63;;;;;;;;;;5013515;28;20186;-71
2023/10/19 14:43:06;;;;;;;10.83;2.60;;;;;;;;;;5012547;28;20190;-69
2023/10/19 14:45:33;;;;;;;11.13;2.90;;;;;;;;;;5013235;28;20194;-69
2023/10/19 14:48:04;;;;;;;8.03;2.23;;;;;;;;;;5013457;28;20188;-69
2023/10/19 14:50:31;;;;;;;6.97;2.33;;;;;;;;;;5013200;28;20230;-70
2023/10/19 14:52:59;;;;;;;7.57;2.43;;;;;;;;;;5012652;28;20269;-69
2023/10/19 14:55:26;;;;;;;8.13;2.40;;;;;;;;;;5013124;28;20228;-67
2023/10/19 14:57:55;;;;;;;7.33;2.30;;;;;;;;;;5015514;28;20192;-67
2023/10/19 15:02:51;;;;;;;7.77;2.30;;;;;;;;;;5016417;28;20182;-69
2023/10/19 15:05:19;;;;;;;4.23;2.10;;;;;;;;;;5017240;28;20672;-70
2023/10/19 15:07:54;;;;;;;8.20;2.87;;;;;;;;;;5016295;28;20202;-69
2023/10/19 15:13:25;;;;;;;6.23;2.40;;;;;;;;;;5015633;28;20179;-67
2023/10/19 15:15:54;;;;;;;11.67;2.70;;;;;;;;;;5016890;28;20195;-69
2023/10/19 15:18:21;;;;;;;8.13;2.30;;;;;;;;;;5016753;28;20180;-68
2023/10/19 15:20:48;;;;;;;4.90;1.83;;;;;;;;;;5016351;28;20190;-70
2023/10/19 15:23:15;;;;;;;7.13;2.13;;;;;;;;;;5016314;28;20184;-70
2023/10/19 15:25:43;;;;;;;8.87;2.33;;;;;;;;;;5016439;28;20184;-70
2023/10/19 15:28:11;;;;;;;5.90;2.13;;;;;;;;;;5016413;28;20196;-69
2023/10/19 15:30:38;;;;;;;5.60;2.37;;;;;;;;;;5016478;28;20268;-69
2023/10/19 15:33:05;;;;;;;10.13;2.43;;;;;;;;;;5015607;28;20668;-69
2023/10/19 15:35:36;;;;;;;6.93;2.10;;;;;;;;;;5016155;28;20222;-69
2023/10/19 15:38:04;;;;;;;7.23;2.50;;;;;;;;;;5016025;28;20595;-69
2023/10/19 15:40:31;;;;;;;9.13;2.60;;;;;;;;;;5016146;28;20189;-68
2023/10/19 15:43:00;;;;;;;6.37;2.53;;;;;;;;;;5015858;28;20189;-69
2023/10/19 15:45:27;;;;;;;8.37;2.20;;;;;;;;;;5015866;28;20658;-69
2023/10/19 15:47:56;;;;;;;11.03;3.23;;;;;;;;;;5016119;28;20619;-70
2023/10/19 15:50:23;;;;;;;10.77;2.77;;;;;;;;;;5015889;28;20641;-69